This is the latest recevied weather packets stored in our database for station/object ON3FV. If no packets are shown the sender has not sent any weather packets the latest 10 day(s).
| Time | Temp. | Humidity | Pressure | Rain* | Wind** | Luminosity | Snow |
|---|---|---|---|---|---|---|---|
| 1778138746 | 10° C | 89% | 1014.6 hPa | - | - | - | - |
| 1778138423 | 9.44° C | 89% | 1014.6 hPa | - | - | - | - |
| 1778136919 | 9.44° C | 89% | 1014.6 hPa | - | - | - | - |
| 1778136317 | 9.44° C | 89% | 1014.5 hPa | - | - | - | - |
| 1778136017 | 9.44° C | 89% | 1014.4 hPa | - | - | - | - |
| 1778133307 | 8.89° C | 89% | 1014 hPa | - | - | - | - |
| 1778132705 | 8.89° C | 89% | 1014 hPa | - | - | - | - |
| 1778128833 | 8.33° C | 89% | 1013.5 hPa | - | - | - | - |
| 1778128491 | 8.33° C | 89% | 1013.5 hPa | - | - | - | - |
| 1778128190 | 8.33° C | 89% | 1013.5 hPa | - | - | - | - |
| 1778127908 | 8.33° C | 89% | 1013.5 hPa | - | - | - | - |
| 1778121287 | 7.78° C | 88% | 1013 hPa | - | - | - | - |
| 1778117353 | 7.78° C | 87% | 1012.6 hPa | - | - | - | - |
| 1778116772 | 7.78° C | 87% | 1012.5 hPa | - | - | - | - |
| 1778116471 | 8.33° C | 87% | 1012.5 hPa | - | - | - | - |
| 1778116150 | 8.33° C | 87% | 1012.5 hPa | - | - | - | - |
| 1778115849 | 8.33° C | 87% | 1012.6 hPa | - | - | - | - |
| 1778113742 | 8.33° C | 87% | 1012.6 hPa | - | - | - | - |
| 1778113440 | 8.33° C | 86% | 1012.6 hPa | - | - | - | - |
| 1778112538 | 8.89° C | 87% | 1012.6 hPa | - | - | - | - |
| 1778111053 | 8.89° C | 87% | 1012.4 hPa | - | - | - | - |
| 1778110430 | 8.89° C | 87% | 1012.3 hPa | - | - | - | - |
| 1778108926 | 8.89° C | 87% | 1012.2 hPa | - | - | - | - |
| 1778108324 | 9.44° C | 87% | 1012.2 hPa | - | - | - | - |
| 1778107722 | 9.44° C | 86% | 1012.1 hPa | - | - | - | - |
* Rain since midnight (hover to see other rain measurements)
** Current wind speed in m/s (hover to see current wind gust speed)